< < Back
Terminal Aerodrome Forecast


Current Version              Previous Versions:   1  2  3  4  5  6  7  8  9  

Terminal Aerodrome Forecast

738
FTUS44 KMRX 200527
TAFCHA
TAF
KCHA 200527Z 2006/2106 02004KT P6SM VCSH OVC060
     FM201200 01005KT P6SM BKN040
     FM210000 VRB03KT P6SM SCT200=



Latest METAR

990
SAUS80 KWBC 202200 RRA
MTRCHA
METAR KCHA 202153Z 11004KT 10SM FEW030 SCT045 SCT120 09/00 A3019 RMK AO2
SLP225 T00890000


USA.gov is the U.S. government's official web portal to all federal, state and local government web resources and services.